Time;durP1;ratioP1;P1;durP2;ratioP2;P2;SDS_P1;SDS_P2;PMS_P1;PMS_P2;Temp;Humidity;BMP_temperature;BMP_pressure;BME280_temperature;BME280_humidity;BME280_pressure;Samples;Min_cycle;Max_cycle;Signal;HPM_P1;HPM_P2
2022/08/23 00:01:57;;;;;;;;;0.75;0.75;;;;;23.98;53.44;100988.06;5059386;28;45533;-67
2022/08/23 00:04:26;;;;;;;;;0.00;0.00;;;;;23.77;53.38;100949.88;5055735;28;45780;-68
2022/08/23 00:06:53;;;;;;;;;1.00;1.00;;;;;23.95;53.77;100980.22;5057143;28;45330;-69
2022/08/23 00:09:20;;;;;;;;;1.67;1.67;;;;;23.97;53.51;100982.81;5067646;28;46191;-68
2022/08/23 00:12:09;;;;;;;;;2.00;0.25;;;;;23.92;53.79;100972.34;5042652;28;45552;-68
2022/08/23 00:14:37;;;;;;;;;1.00;1.00;;;;;23.74;53.44;100943.84;5060048;28;45653;-67
2022/08/23 00:17:05;;;;;;;;;0.25;0.25;;;;;23.96;53.59;100979.25;5073905;28;45450;-69
2022/08/23 00:19:31;;;;;;;;;1.00;1.00;;;;;23.76;53.62;100942.81;5067261;28;45645;-70
2022/08/23 00:21:56;;;;;;;;;2.50;1.00;;;;;23.92;53.95;100983.03;5065204;28;45525;-70
2022/08/23 00:24:26;;;;;;;;;0.50;0.50;;;;;23.95;53.77;100982.88;5073512;28;45427;-69
2022/08/23 00:26:56;;;;;;;;;0.50;0.50;;;;;23.83;53.86;100970.13;5073776;28;45429;-70
2022/08/23 00:29:24;;;;;;;;;3.00;2.00;;;;;23.80;53.98;100972.94;5073759;28;46671;-69
2022/08/23 00:31:51;;;;;;;;;0.00;0.00;;;;;23.70;54.54;100964.47;5073513;28;45515;-70
2022/08/23 00:34:16;;;;;;;;;1.00;1.00;;;;;23.58;54.79;100962.41;5074168;28;45647;-70
2022/08/23 00:36:43;;;;;;;;;1.00;1.00;;;;;23.46;54.99;100950.50;5070781;28;45322;-69
2022/08/23 00:39:10;;;;;;;;;1.00;1.00;;;;;23.48;55.06;100961.97;5066268;28;46619;-69
2022/08/23 00:41:36;;;;;;;;;1.00;1.00;;;;;23.45;55.24;100964.81;5073798;28;45521;-70
2022/08/23 00:47:38;;;;;;;;;1.00;1.00;;;;;23.47;55.27;100974.50;5075093;28;45493;-70
2022/08/23 00:50:08;;;;;;;;;1.00;1.00;;;;;23.27;55.48;100942.50;5079973;28;46498;-70
2022/08/23 00:52:40;;;;;;;;;2.00;1.00;;;;;23.39;55.86;100975.78;5080828;28;45337;-69
2022/08/23 00:55:07;;;;;;;;;1.67;1.00;;;;;23.42;55.69;100976.53;5081723;28;45257;-69
2022/08/23 00:57:33;;;;;;;;;1.00;1.00;;;;;23.43;55.84;100980.06;5077172;28;45515;-70
2022/08/23 00:59:59;;;;;;;;;1.00;1.00;;;;;23.26;56.04;100963.00;5077152;28;45351;-69
2022/08/23 01:02:25;;;;;;;;;1.33;1.00;;;;;23.31;55.99;100978.81;5076678;28;45502;-70
2022/08/23 01:04:57;;;;;;;;;1.00;1.00;;;;;23.34;55.81;100969.78;5074174;28;45472;-70
2022/08/23 01:07:35;;;;;;;;;0.00;0.00;;;;;23.38;56.27;100982.94;5073896;28;45441;-68
2022/08/23 01:10:08;;;;;;;;;2.00;2.00;;;;;23.35;56.11;100983.09;5076074;28;45789;-69
2022/08/23 01:12:45;;;;;;;;;2.00;2.00;;;;;23.34;55.89;100985.81;5061177;28;45476;-70
2022/08/23 01:15:22;;;;;;;;;1.00;1.00;;;;;23.37;56.25;100983.00;5066932;27;45513;-69
2022/08/23 01:18:01;;;;;;;;;2.00;1.00;;;;;23.38;56.20;100979.41;5074893;28;45549;-70
2022/08/23 01:20:32;;;;;;;;;1.00;1.00;;;;;23.11;56.10;100942.34;5073975;28;46269;-71
2022/08/23 01:23:00;;;;;;;;;1.00;1.00;;;;;23.37;56.19;100983.88;5077198;28;45445;-69
2022/08/23 01:25:29;;;;;;;;;1.00;1.00;;;;;23.28;56.07;100969.16;5055479;28;45533;-69
2022/08/23 01:27:56;;;;;;;;;1.00;1.00;;;;;23.39;56.61;100983.81;5058378;28;45390;-69
2022/08/23 01:30:42;;;;;;;;;1.00;1.00;;;;;23.40;55.96;100980.22;5074916;28;45372;-72
2022/08/23 01:33:24;;;;;;;;;0.33;0.33;;;;;23.34;56.03;100972.47;5078537;28;45358;-76
2022/08/23 01:36:01;;;;;;;;;1.00;1.00;;;;;23.25;56.34;100968.41;5060568;28;45454;-71
2022/08/23 01:38:28;;;;;;;;;1.67;1.67;;;;;22.98;56.47;100928.69;5059950;28;45839;-71
2022/08/23 01:40:55;;;;;;;;;1.00;1.00;;;;;23.02;56.29;100946.31;5076688;28;45675;-76
2022/08/23 01:43:22;;;;;;;;;2.50;1.00;;;;;23.33;56.22;100984.97;5067601;28;45425;-76
2022/08/23 01:45:53;;;;;;;;;1.00;1.00;;;;;23.38;56.11;100995.44;5079023;28;45760;-69
2022/08/23 01:48:23;;;;;;;;;0.00;0.00;;;;;23.45;55.65;100994.22;5060406;28;45591;-73
2022/08/23 01:50:49;;;;;;;;;0.50;0.50;;;;;23.23;55.53;100952.47;5079213;27;45897;-68
2022/08/23 01:53:24;;;;;;;;;0.25;0.25;;;;;23.45;56.01;100987.06;5078388;28;45495;-70
2022/08/23 01:55:50;;;;;;;;;1.00;1.00;;;;;23.25;55.90;100961.28;5060626;28;45547;-68
2022/08/23 01:58:16;;;;;;;;;0.50;0.50;;;;;23.20;55.86;100952.59;5076229;28;46642;-67
2022/08/23 02:00:43;;;;;;;;;0.00;0.00;;;;;23.39;55.92;100984.66;5057083;28;45506;-68
2022/08/23 02:03:11;;;;;;;;;1.00;1.00;;;;;23.29;56.50;100972.69;5076882;28;45652;-69
2022/08/23 02:05:38;;;;;;;;;0.00;0.00;;;;;23.37;56.25;100980.31;5077938;28;45351;-69
2022/08/23 02:10:51;;;;;;;;;1.00;1.00;;;;;23.12;56.53;100973.47;5072423;28;45464;-81
2022/08/23 02:13:17;;;;;;;;;1.00;1.00;;;;;23.04;56.60;100954.25;5074205;28;45398;-79
2022/08/23 02:15:45;;;;;;;;;2.00;1.00;;;;;23.24;56.63;100988.06;5078754;28;45789;-78
2022/08/23 02:18:12;;;;;;;;;0.00;0.00;;;;;23.27;56.54;100991.44;5076837;28;45347;-80
2022/08/23 02:20:44;;;;;;;;;0.00;0.00;;;;;23.27;56.09;100970.06;5075356;28;46120;-75
2022/08/23 02:23:10;;;;;;;;;1.00;1.00;;;;;23.33;56.39;100974.28;5075491;28;45457;-83
2022/08/23 02:25:36;;;;;;;;;1.00;1.00;;;;;23.08;56.90;100958.53;5065310;28;45442;-85
2022/08/23 02:28:02;;;;;;;;;1.00;1.00;;;;;23.28;56.48;100990.53;5066197;28;45688;-79
2022/08/23 02:30:27;;;;;;;;;0.00;0.00;;;;;23.34;56.21;100999.19;5068943;28;46117;-76
2022/08/23 02:32:53;;;;;;;;;1.00;1.00;;;;;23.31;56.65;100996.66;5056952;28;45665;-68
2022/08/23 02:35:18;;;;;;;;;1.00;1.00;;;;;23.34;56.10;100996.53;5075685;28;45532;-69
2022/08/23 02:37:44;;;;;;;;;0.50;0.50;;;;;23.32;56.19;100985.03;5076162;28;45373;-71
2022/08/23 02:40:10;;;;;;;;;0.00;0.00;;;;;23.45;56.45;101010.25;5079114;28;46114;-77
2022/08/23 02:42:36;;;;;;;;;1.00;1.00;;;;;23.23;56.29;100973.84;5076893;28;45707;-69
2022/08/23 02:45:03;;;;;;;;;0.67;0.67;;;;;23.32;56.40;100991.22;5074978;28;45410;-70
2022/08/23 02:47:28;;;;;;;;;0.25;0.25;;;;;23.38;56.48;101000.78;5056081;28;45944;-72
2022/08/23 02:49:54;;;;;;;;;1.00;1.00;;;;;23.31;56.40;100983.31;5074676;28;46193;-68
2022/08/23 02:52:19;;;;;;;;;1.50;1.00;;;;;23.26;56.88;100975.50;5075520;28;45484;-69
2022/08/23 02:54:45;;;;;;;;;2.00;2.00;;;;;23.33;56.95;100994.81;5079364;27;45355;-69
2022/08/23 02:57:11;;;;;;;;;1.00;1.00;;;;;23.24;56.99;100985.41;5078428;28;45355;-68
2022/08/23 02:59:36;;;;;;;;;1.67;1.00;;;;;23.27;57.15;100996.78;5075716;28;45343;-68
2022/08/23 03:02:03;;;;;;;;;2.00;2.00;;;;;23.14;57.23;100976.94;5075201;28;45306;-68
2022/08/23 03:04:29;;;;;;;;;2.67;2.67;;;;;23.17;57.49;100994.63;5073418;28;45517;-68
2022/08/23 03:06:55;;;;;;;;;2.00;2.00;;;;;23.01;57.40;100973.09;5075144;28;45657;-71
2022/08/23 03:09:21;;;;;;;;;2.00;2.00;;;;;23.06;57.51;100979.09;5075243;28;45513;-69
2022/08/23 03:11:48;;;;;;;;;1.00;1.00;;;;;23.19;57.38;101012.34;5064315;28;45468;-70
2022/08/23 03:14:15;;;;;;;;;1.00;1.00;;;;;23.25;57.47;100996.03;5076719;28;45343;-69
2022/08/23 03:16:41;;;;;;;;;2.00;2.00;;;;;22.88;57.38;100945.22;5074961;28;45284;-70
2022/08/23 03:19:07;;;;;;;;;1.00;1.00;;;;;23.20;57.18;101008.72;5055883;28;46249;-68
2022/08/23 03:21:33;;;;;;;;;2.00;2.00;;;;;23.01;57.41;100981.13;5056152;28;45420;-68
2022/08/23 03:23:59;;;;;;;;;1.00;1.00;;;;;23.07;57.57;100997.72;5078554;27;45574;-69
2022/08/23 03:26:25;;;;;;;;;1.33;1.00;;;;;22.95;57.36;100966.22;5076250;28;45502;-69
2022/08/23 03:28:50;;;;;;;;;1.00;1.00;;;;;23.20;57.46;101003.38;5074345;28;45560;-69
2022/08/23 03:31:16;;;;;;;;;3.00;1.33;;;;;23.19;57.59;101007.00;5073931;28;45452;-69
2022/08/23 03:33:42;;;;;;;;;5.00;2.00;;;;;23.08;57.73;100998.59;5074377;28;45607;-67
2022/08/23 03:36:09;;;;;;;;;2.00;2.00;;;;;22.81;57.99;100977.53;5074486;28;45416;-67
2022/08/23 03:38:36;;;;;;;;;2.00;2.00;;;;;23.03;57.71;101005.97;5055634;28;45845;-68
2022/08/23 03:41:02;;;;;;;;;1.00;1.00;;;;;23.10;57.79;101006.56;5073761;28;45457;-67
2022/08/23 03:43:28;;;;;;;;;1.33;1.33;;;;;23.07;57.86;100997.72;5074162;28;45836;-67
2022/08/23 03:45:54;;;;;;;;;2.00;2.00;;;;;23.05;58.18;101012.97;5074137;28;45621;-68
2022/08/23 03:48:21;;;;;;;;;1.00;1.00;;;;;22.83;58.20;100975.66;5074474;27;45925;-69
2022/08/23 03:50:47;;;;;;;;;0.67;0.67;;;;;22.94;58.02;100984.97;5075076;28;45629;-68
2022/08/23 03:53:13;;;;;;;;;1.00;1.00;;;;;23.07;57.82;101024.44;5077849;28;45527;-68
2022/08/23 03:55:41;;;;;;;;;0.00;0.00;;;;;23.07;57.57;101007.56;5075319;28;45287;-68
2022/08/23 03:58:07;;;;;;;;;1.00;1.00;;;;;23.15;57.62;101020.56;5075266;28;45885;-69
2022/08/23 04:00:33;;;;;;;;;1.33;1.00;;;;;22.90;57.69;100988.72;5077147;28;45358;-67
2022/08/23 04:02:59;;;;;;;;;2.00;2.00;;;;;23.08;58.07;101031.50;5074254;28;45711;-68
2022/08/23 04:05:25;;;;;;;;;2.00;2.00;;;;;22.96;58.00;101021.34;5074560;28;45439;-70
2022/08/23 04:07:51;;;;;;;;;3.33;2.00;;;;;22.67;57.99;100976.41;5073783;28;46483;-69
2022/08/23 04:10:17;;;;;;;;;3.00;3.00;;;;;23.00;57.97;101038.16;5071687;28;45338;-68
2022/08/23 04:12:43;;;;;;;;;2.00;2.00;;;;;23.01;58.24;101037.22;5043643;28;45759;-67
2022/08/23 04:15:10;;;;;;;;;4.00;2.33;;;;;22.91;58.27;101019.84;5073903;28;45875;-67
2022/08/23 04:17:36;;;;;;;;;2.67;2.67;;;;;23.06;58.30;101043.22;5072246;28;46231;-68
2022/08/23 04:20:05;;;;;;;;;2.67;2.67;;;;;23.02;58.57;101049.66;5073418;28;45474;-68
2022/08/23 04:22:32;;;;;;;;;3.00;3.00;;;;;22.86;58.65;101026.25;5072972;28;45540;-69
2022/08/23 04:24:59;;;;;;;;;3.67;2.67;;;;;22.99;58.18;101047.09;5076108;28;45694;-67
2022/08/23 04:27:24;;;;;;;;;2.00;2.00;;;;;22.98;58.38;101035.53;5074594;28;46249;-71
2022/08/23 04:29:50;;;;;;;;;3.00;2.00;;;;;23.09;58.70;101053.78;5073470;28;45438;-72
2022/08/23 04:32:16;;;;;;;;;2.00;2.00;;;;;23.04;58.95;101050.41;5074155;28;45395;-69
2022/08/23 04:34:42;;;;;;;;;2.33;2.00;;;;;22.91;58.79;101027.84;5076846;28;45314;-71
2022/08/23 04:37:08;;;;;;;;;2.00;2.00;;;;;23.00;59.37;101051.50;5069666;28;46498;-68
2022/08/23 04:42:16;;;;;;;;;2.67;2.67;;;;;22.95;58.81;101053.50;5062572;28;45446;-68
2022/08/23 04:42:22;;;;;;;;;1.67;1.67;;;;;22.74;59.21;101024.13;5073009;28;45804;-68
2022/08/23 04:44:48;;;;;;;;;1.00;1.00;;;;;22.55;59.06;101000.03;5073547;28;45492;-68
2022/08/23 04:47:14;;;;;;;;;3.00;3.00;;;;;22.84;59.24;101065.50;5073201;28;45480;-70
2022/08/23 04:49:40;;;;;;;;;2.67;0.67;;;;;22.72;59.56;101063.38;5072880;28;45449;-68
2022/08/23 04:52:06;;;;;;;;;4.33;3.00;;;;;22.62;59.96;101062.03;5075307;28;46130;-69
2022/08/23 04:54:31;;;;;;;;;2.00;2.00;;;;;22.63;59.82;101064.63;5073931;28;45821;-69
2022/08/23 04:56:57;;;;;;;;;3.00;3.00;;;;;22.71;59.88;101061.66;5072822;28;45441;-69
2022/08/23 04:59:23;;;;;;;;;4.00;4.00;;;;;22.74;59.89;101074.84;5071435;28;45461;-68
2022/08/23 05:01:50;;;;;;;;;4.00;3.00;;;;;22.58;60.53;101073.78;5045364;28;45367;-68
2022/08/23 05:04:16;;;;;;;;;5.00;3.67;;;;;22.47;60.63;101070.69;5071815;28;45877;-70
2022/08/23 05:06:42;;;;;;;;;5.00;3.33;;;;;22.46;60.61;101074.31;5072821;28;46146;-68
2022/08/23 05:09:07;;;;;;;;;3.00;2.67;;;;;22.34;60.45;101052.53;5078287;28;45780;-70
2022/08/23 05:11:33;;;;;;;;;3.67;2.67;;;;;22.36;60.15;101052.47;5064211;28;45532;-70
2022/08/23 05:13:59;;;;;;;;;3.00;3.00;;;;;22.51;60.46;101086.50;5075198;28;45771;-69
2022/08/23 05:16:25;;;;;;;;;3.00;3.00;;;;;22.40;60.71;101078.06;5077212;28;46231;-69
2022/08/23 05:18:50;;;;;;;;;3.00;3.00;;;;;22.34;61.04;101076.53;5080558;28;45294;-68
2022/08/23 05:21:19;;;;;;;;;4.00;4.00;;;;;22.23;61.26;101061.00;5079199;28;45352;-69
2022/08/23 05:23:45;;;;;;;;;5.00;3.00;;;;;22.08;61.49;101047.38;5077087;28;45406;-69
2022/08/23 05:26:11;;;;;;;;;4.00;3.33;;;;;22.25;61.57;101081.41;5057689;28;45543;-68
2022/08/23 05:28:40;;;;;;;;;4.00;3.00;;;;;22.18;61.74;101075.41;5076139;28;45535;-69
2022/08/23 05:31:24;;;;;;;;;4.00;4.00;;;;;22.25;61.38;101087.59;5076081;28;45557;-68
2022/08/23 05:33:50;;;;;;;;;2.33;2.33;;;;;22.21;61.28;101075.34;5076338;28;45443;-67
2022/08/23 05:36:17;;;;;;;;;4.33;3.00;;;;;22.18;61.42;101080.75;5076913;28;45496;-68
2022/08/23 05:38:45;;;;;;;;;5.00;5.00;;;;;22.14;61.91;101084.47;5076226;28;45445;-67
2022/08/23 05:41:12;;;;;;;;;5.00;4.00;;;;;22.10;61.89;101094.41;5073478;28;45549;-68
2022/08/23 05:43:37;;;;;;;;;4.00;4.00;;;;;22.09;62.14;101091.78;5062191;28;45743;-68
2022/08/23 05:46:09;;;;;;;;;3.33;3.33;;;;;22.12;62.06;101086.34;5065250;28;45838;-69
2022/08/23 05:48:36;;;;;;;;;4.33;4.33;;;;;22.10;62.28;101086.41;5075573;28;45393;-67
2022/08/23 05:51:17;;;;;;;;;3.00;3.00;;;;;22.22;61.67;101085.94;5066287;28;45626;-68
2022/08/23 05:53:44;;;;;;;;;5.00;5.00;;;;;22.25;61.45;101076.91;5075349;28;45481;-68
2022/08/23 05:56:13;;;;;;;;;2.00;2.00;;;;;22.50;60.76;101090.13;5057400;28;45547;-79
2022/08/23 05:58:39;;;;;;;;;4.00;4.00;;;;;22.49;60.86;101082.16;5068156;28;45647;-82
2022/08/23 06:01:05;;;;;;;;;4.00;4.00;;;;;22.62;60.59;101088.75;5072086;28;45523;-81
2022/08/23 06:03:31;;;;;;;;;4.00;4.00;;;;;22.68;60.34;101096.47;5076838;28;45678;-80
2022/08/23 06:05:58;;;;;;;;;4.00;4.00;;;;;22.72;60.11;101092.75;5075454;28;45733;-68
2022/08/23 06:08:24;;;;;;;;;3.00;3.00;;;;;22.67;60.20;101083.19;5075089;28;45468;-68
2022/08/23 06:11:02;;;;;;;;;6.00;3.00;;;;;22.72;60.25;101092.75;5053764;28;45810;-67
2022/08/23 06:13:28;;;;;;;;;8.33;4.33;;;;;22.75;60.02;101089.06;5070011;28;45481;-67
2022/08/23 06:15:56;;;;;;;;;2.67;2.67;;;;;22.68;60.33;101076.91;5040108;28;46374;-67
2022/08/23 06:18:22;;;;;;;;;4.67;4.67;;;;;22.75;60.32;101097.94;5073980;28;45409;-68
2022/08/23 06:20:48;;;;;;;;;4.00;4.00;;;;;22.73;60.36;101083.81;5078684;28;45427;-70
2022/08/23 06:23:13;;;;;;;;;4.67;4.00;;;;;22.89;59.78;101093.81;5075632;28;45430;-67
2022/08/23 06:25:39;;;;;;;;;8.00;5.00;;;;;23.13;59.42;101091.88;5074999;28;46632;-68
2022/08/23 06:28:05;;;;;;;;;6.67;4.33;;;;;23.19;59.03;101087.16;5075499;28;45476;-68
2022/08/23 06:30:31;;;;;;;;;4.00;4.00;;;;;23.42;58.29;101112.84;5074925;28;45508;-67
2022/08/23 06:32:56;;;;;;;;;4.00;4.00;;;;;23.61;58.17;101115.53;5075057;28;45476;-69
2022/08/23 06:35:22;;;;;;;;;4.00;3.00;;;;;23.72;58.04;101112.34;5071008;28;45320;-67
2022/08/23 06:37:48;;;;;;;;;3.67;3.67;;;;;23.77;57.79;101109.47;5058430;28;45323;-69
2022/08/23 06:40:14;;;;;;;;;4.33;4.33;;;;;23.74;57.32;101115.84;5055025;28;45568;-69
2022/08/23 06:42:39;;;;;;;;;7.00;3.00;;;;;23.76;57.36;101107.75;5036687;28;45461;-71
2022/08/23 06:45:05;;;;;;;;;4.00;4.00;;;;;23.53;57.35;101053.50;5054568;28;45574;-67
2022/08/23 06:47:31;;;;;;;;;3.33;3.33;;;;;23.90;56.74;101106.16;5054035;28;45804;-68
2022/08/23 06:49:57;;;;;;;;;4.00;2.67;;;;;23.89;56.59;101103.53;5054624;28;45469;-68
2022/08/23 06:52:23;;;;;;;;;4.67;4.67;;;;;23.87;56.82;101102.75;5054597;28;45611;-69
2022/08/23 06:54:49;;;;;;;;;5.00;3.33;;;;;24.21;56.49;101109.16;5035876;28;46916;-69
2022/08/23 06:57:14;;;;;;;;;3.67;3.67;;;;;24.42;56.00;101118.81;5059595;28;45584;-71
2022/08/23 06:59:41;;;;;;;;;3.00;3.00;;;;;24.58;55.77;101124.28;5066556;28;45533;-69
2022/08/23 07:02:11;;;;;;;;;5.67;4.00;;;;;24.68;54.81;101120.22;5063727;28;45480;-68
2022/08/23 07:04:42;;;;;;;;;5.00;5.00;;;;;24.90;54.65;101125.31;5054656;27;45482;-68
2022/08/23 07:07:08;;;;;;;;;6.33;4.67;;;;;24.89;54.56;101120.91;5038642;28;45646;-70
2022/08/23 07:09:34;;;;;;;;;5.00;3.67;;;;;24.79;54.36;101095.53;5062879;28;45621;-67
2022/08/23 07:12:01;;;;;;;;;3.33;3.33;;;;;24.73;54.20;101086.00;5051420;28;45993;-69
2022/08/23 07:14:27;;;;;;;;;4.00;4.00;;;;;24.76;54.00;101076.94;5068787;27;45464;-68
2022/08/23 07:16:58;;;;;;;;;3.00;3.00;;;;;24.39;53.75;101022.56;5073469;28;45689;-70
2022/08/23 07:19:27;;;;;;;;;4.67;4.00;;;;;25.06;53.49;101111.16;5074065;28;45752;-69
2022/08/23 07:21:53;;;;;;;;;4.50;3.25;;;;;25.52;52.81;101132.81;5076125;28;45583;-69
2022/08/23 07:24:20;;;;;;;;;6.50;4.25;;;;;25.82;51.97;101141.00;5075346;28;45560;-68
2022/08/23 07:26:48;;;;;;;;;4.00;3.00;;;;;26.05;51.96;101136.19;5074155;28;45339;-69
2022/08/23 07:29:15;;;;;;;;;5.33;5.00;;;;;25.96;51.54;101121.47;5071710;28;45404;-69
2022/08/23 07:31:48;;;;;;;;;5.67;5.33;;;;;25.71;51.85;101128.19;5065363;28;45396;-76
2022/08/23 07:34:14;;;;;;;;;6.25;4.75;;;;;25.66;52.56;101141.00;5056168;28;46144;-72
2022/08/23 07:36:42;;;;;;;;;6.00;4.50;;;;;25.51;52.69;101115.88;5061083;28;45427;-73
2022/08/23 07:39:09;;;;;;;;;5.00;3.00;;;;;25.60;52.84;101138.63;5071016;28;45440;-69
2022/08/23 07:41:37;;;;;;;;;4.00;4.00;;;;;25.64;52.66;101136.66;5057849;28;45613;-69
2022/08/23 07:44:07;;;;;;;;;4.00;3.25;;;;;25.74;52.42;101143.25;5054034;28;45634;-68
2022/08/23 07:46:34;;;;;;;;;3.50;3.50;;;;;25.85;52.64;101153.41;5036134;28;45617;-72
2022/08/23 07:49:02;;;;;;;;;6.50;6.50;;;;;25.83;52.43;101158.84;5053805;28;45430;-68
2022/08/23 07:51:30;;;;;;;;;7.00;6.75;;;;;25.53;52.53;101118.47;5054412;28;45577;-68
2022/08/23 07:53:56;;;;;;;;;5.67;5.67;;;;;25.51;53.26;101147.19;5053829;28;45713;-71
2022/08/23 07:56:22;;;;;;;;;9.00;6.67;;;;;25.44;53.31;101148.44;5053335;28;45511;-71
2022/08/23 07:58:48;;;;;;;;;6.50;4.50;;;;;25.20;52.88;101108.63;5036030;28;45478;-67
2022/08/23 08:01:24;;;;;;;;;8.67;8.00;;;;;25.33;53.14;101147.22;5036195;28;45659;-68
2022/08/23 08:03:52;;;;;;;;;5.00;5.00;;;;;25.22;53.49;101121.94;5060506;28;45946;-67
2022/08/23 08:06:29;;;;;;;;;9.25;5.75;;;;;25.43;53.53;101155.63;5053047;28;45453;-70
2022/08/23 08:08:56;;;;;;;;;5.00;5.00;;;;;25.39;53.11;101143.38;5057256;28;45500;-72
2022/08/23 08:11:25;;;;;;;;;7.00;5.25;;;;;25.46;53.44;101155.50;5053697;28;45692;-70
2022/08/23 08:13:51;;;;;;;;;6.00;6.00;;;;;25.50;52.88;101157.03;5070978;28;45940;-70
2022/08/23 08:16:29;;;;;;;;;6.25;6.25;;;;;25.44;53.10;101143.09;5073369;28;45544;-72
2022/08/23 08:18:58;;;;;;;;;5.75;5.00;;;;;25.44;52.94;101140.41;5076665;28;45800;-71
2022/08/23 08:21:24;;;;;;;;;6.75;6.75;;;;;25.63;53.04;101153.69;5073922;28;45594;-70
2022/08/23 08:23:50;;;;;;;;;6.75;5.50;;;;;25.72;52.85;101159.44;5073474;28;46394;-70
2022/08/23 08:26:16;;;;;;;;;7.00;7.00;;;;;25.84;52.41;101162.38;5073665;28;45509;-71
2022/08/23 08:28:42;;;;;;;;;7.33;6.00;;;;;25.88;52.23;101164.84;5073990;28;45383;-70
2022/08/23 08:31:08;;;;;;;;;5.75;5.75;;;;;25.87;52.33;101160.44;5055718;28;45523;-70
2022/08/23 08:33:35;;;;;;;;;5.00;5.00;;;;;25.84;52.26;101162.38;5073489;28;45517;-69
2022/08/23 08:36:01;;;;;;;;;5.75;5.00;;;;;25.91;52.17;101167.38;5059054;28;45254;-69
2022/08/23 08:38:27;;;;;;;;;5.00;5.00;;;;;25.81;53.03;101156.22;5076446;28;45526;-69
2022/08/23 08:41:06;;;;;;;;;8.25;7.00;;;;;25.89;52.36;101171.97;5073840;28;45374;-69
2022/08/23 08:43:53;;;;;;;;;8.00;6.75;;;;;25.85;52.20;101170.34;5076098;28;45508;-70
2022/08/23 08:46:27;;;;;;;;;7.25;6.25;;;;;25.85;52.46;101162.31;5076840;28;45396;-69
2022/08/23 08:48:58;;;;;;;;;7.00;7.00;;;;;25.87;52.16;101173.00;5077160;28;45586;-69
2022/08/23 08:51:44;;;;;;;;;5.25;4.75;;;;;25.96;52.45;101175.16;5077602;28;45588;-71
2022/08/23 08:54:13;;;;;;;;;5.00;5.00;;;;;26.14;51.63;101165.22;5065821;28;46525;-71
2022/08/23 08:56:41;;;;;;;;;4.75;4.00;;;;;26.29;51.45;101171.53;5066000;28;45395;-71
2022/08/23 08:59:14;;;;;;;;;6.33;6.00;;;;;26.45;51.30;101175.91;5055347;28;45650;-73
2022/08/23 09:01:41;;;;;;;;;7.00;7.00;;;;;26.43;51.25;101167.13;5066850;28;45349;-71
2022/08/23 09:04:07;;;;;;;;;9.50;8.00;;;;;26.46;51.08;101166.06;5076393;28;46091;-72
2022/08/23 09:06:50;;;;;;;;;4.00;2.50;;;;;26.52;51.19;101176.44;5075906;28;45673;-69
2022/08/23 09:09:35;;;;;;;;;7.00;6.00;;;;;26.48;51.08;101182.06;5081035;28;45462;-69
2022/08/23 09:12:11;;;;;;;;;5.00;5.00;;;;;26.61;51.16;101175.94;5067087;28;45541;-70
2022/08/23 09:15:14;;;;;;;;;5.00;5.00;;;;;26.92;50.27;101175.97;5042052;28;47616;-72
2022/08/23 09:17:53;;;;;;;;;5.00;5.00;;;;;27.11;50.04;101171.19;5075452;28;45481;-75
2022/08/23 09:20:27;;;;;;;;;5.75;5.75;;;;;27.29;49.55;101177.34;5059051;28;45498;-76
2022/08/23 09:23:22;;;;;;;;;8.50;7.50;;;;;27.08;49.69;101166.88;5076601;28;45898;-78
2022/08/23 09:25:59;;;;;;;;;6.50;6.00;;;;;27.09;49.76;101162.34;5077074;28;46271;-69
2022/08/23 09:28:29;;;;;;;;;7.00;6.00;;;;;27.32;49.64;101185.19;5044158;28;45508;-72
2022/08/23 09:30:57;;;;;;;;;5.25;5.25;;;;;27.39;49.30;101183.88;5044493;28;45543;-72
2022/08/23 09:33:36;;;;;;;;;8.00;6.25;;;;;27.45;48.89;101178.13;5075978;28;45575;-68
2022/08/23 09:36:16;;;;;;;;;7.50;5.50;;;;;27.40;48.97;101171.28;5076023;28;46315;-68
2022/08/23 09:38:54;;;;;;;;;5.50;5.25;;;;;27.41;49.01;101173.03;5061380;28;45433;-68
2022/08/23 09:41:38;;;;;;;;;4.00;4.00;;;;;27.64;48.95;101179.63;5057567;28;45532;-68
2022/08/23 09:44:07;;;;;;;;;5.00;4.50;;;;;27.87;48.38;101175.53;5075429;28;45539;-69
2022/08/23 09:46:36;;;;;;;;;4.00;4.00;;;;;28.03;48.06;101168.22;5057351;28;45536;-82
2022/08/23 09:49:40;;;;;;;;;3.00;3.00;;;;;28.21;47.55;101182.28;5077365;28;45319;-81
2022/08/23 09:52:17;;;;;;;;;5.25;4.25;;;;;28.44;47.26;101179.94;5018059;28;45486;-84
2022/08/23 09:54:43;;;;;;;;;5.25;5.00;;;;;28.63;46.76;101183.16;5055213;28;45323;-70
2022/08/23 09:57:12;;;;;;;;;3.00;3.00;;;;;28.78;46.32;101158.84;5075343;28;45365;-68
2022/08/23 09:59:50;;;;;;;;;4.25;4.25;;;;;28.75;46.10;101171.53;5075872;28;45398;-68
2022/08/23 10:02:29;;;;;;;;;4.25;3.00;;;;;28.96;45.83;101168.38;5078284;28;45843;-74
2022/08/23 10:05:15;;;;;;;;;3.75;3.75;;;;;29.07;45.64;101157.75;5080396;28;45651;-69
2022/08/23 10:07:44;;;;;;;;;3.00;3.00;;;;;29.22;44.94;101158.50;5078493;28;45418;-76
2022/08/23 10:10:31;;;;;;;;;3.00;3.00;;;;;29.42;45.03;101172.41;5073433;28;45465;-71
2022/08/23 10:12:58;;;;;;;;;3.00;3.00;;;;;29.60;44.79;101160.34;5065136;28;45436;-69
2022/08/23 10:15:39;;;;;;;;;4.00;4.00;;;;;29.76;44.38;101162.84;5078804;28;45407;-69
2022/08/23 10:18:25;;;;;;;;;3.25;3.25;;;;;29.67;44.10;101152.69;5078853;28;46413;-69
2022/08/23 10:21:03;;;;;;;;;3.00;3.00;;;;;29.43;44.50;101115.66;5074706;27;45383;-68
2022/08/23 10:23:55;;;;;;;;;3.00;3.00;;;;;29.79;43.77;101152.66;5074991;28;45541;-68
2022/08/23 10:26:32;;;;;;;;;4.50;4.00;;;;;29.79;44.29;101155.34;5063378;28;45883;-68
2022/08/23 10:29:36;;;;;;;;;3.50;3.00;;;;;29.96;43.52;101146.03;5055602;28;48148;-69
2022/08/23 10:32:44;;;;;;;;;2.20;2.20;;;;;29.81;43.67;101139.06;5061947;28;45366;-71
2022/08/23 10:35:48;;;;;;;;;2.00;2.00;;;;;29.85;43.63;101148.66;5065281;28;45367;-72
2022/08/23 10:39:05;;;;;;;;;2.00;2.00;;;;;29.72;43.90;101137.88;5063299;28;45560;-72
2022/08/23 10:41:55;;;;;;;;;4.00;2.50;;;;;29.65;44.48;101139.25;5000313;28;45512;-67
2022/08/23 10:44:42;;;;;;;;;6.00;6.00;;;;;29.74;43.64;101146.75;5012187;28;45657;-69
2022/08/23 10:47:37;;;;;;;;;2.50;2.50;;;;;29.73;43.84;101146.84;5060893;28;45487;-68
2022/08/23 10:50:08;;;;;;;;;4.00;4.00;;;;;29.54;44.23;101121.16;5063253;28;45587;-71
2022/08/23 10:52:43;;;;;;;;;2.50;2.50;;;;;29.82;44.10;101137.22;5076382;27;46135;-69
2022/08/23 10:55:34;;;;;;;;;2.80;2.80;;;;;30.03;44.05;101130.25;5078909;28;45325;-69
2022/08/23 10:58:02;;;;;;;;;2.80;2.80;;;;;30.16;43.58;101130.19;5079080;28;45503;-70
2022/08/23 11:00:29;;;;;;;;;3.00;3.00;;;;;30.14;43.36;101122.22;5080249;28;45286;-69
2022/08/23 11:03:20;;;;;;;;;3.75;3.00;;;;;29.95;43.75;101124.56;5061057;28;45403;-68
2022/08/23 11:06:24;;;;;;;;;2.80;2.80;;;;;29.73;43.58;101138.75;5074877;28;45351;-68
2022/08/23 11:09:19;;;;;;;;;2.00;2.00;;;;;29.79;44.15;101132.91;5077183;28;45339;-68
2022/08/23 11:12:20;;;;;;;;;2.25;1.50;;;;;29.60;43.56;101095.56;5058175;28;45517;-69
2022/08/23 11:14:58;;;;;;;;;2.00;2.00;;;;;29.61;44.38;101126.94;5056606;28;46977;-69
2022/08/23 11:17:33;;;;;;;;;1.40;1.00;;;;;29.31;44.11;101097.66;5073786;28;45704;-69
2022/08/23 11:20:10;;;;;;;;;1.80;1.80;;;;;29.41;44.54;101123.00;5074240;28;45667;-71
2022/08/23 11:23:03;;;;;;;;;1.25;1.25;;;;;29.37;44.30;101126.88;5074498;28;45452;-69
2022/08/23 11:25:29;;;;;;;;;1.25;1.00;;;;;29.56;43.78;101132.69;5074173;28;46013;-74
2022/08/23 11:28:22;;;;;;;;;2.00;1.75;;;;;29.56;43.84;101124.59;5074144;27;45559;-68
2022/08/23 11:30:59;;;;;;;;;2.00;2.00;;;;;29.46;43.67;101123.53;5074566;28;45484;-68
2022/08/23 11:33:42;;;;;;;;;2.00;2.00;;;;;29.71;43.22;101127.19;5074018;27;45335;-70
2022/08/23 11:36:08;;;;;;;;;2.00;2.00;;;;;29.80;43.38;101119.31;5065192;28;45585;-68
2022/08/23 11:38:45;;;;;;;;;1.00;1.00;;;;;29.89;42.61;101093.44;5055594;28;45421;-69
2022/08/23 11:41:26;;;;;;;;;1.00;1.00;;;;;30.37;42.07;101127.75;5055598;28;45463;-70
2022/08/23 11:43:54;;;;;;;;;1.00;1.00;;;;;30.61;41.68;101120.50;5074227;28;45444;-69
2022/08/23 11:46:27;;;;;;;;;1.00;1.00;;;;;30.58;41.87;101090.97;5069785;28;46176;-68
2022/08/23 11:49:16;;;;;;;;;1.00;1.00;;;;;30.97;41.48;101131.34;5073088;28;45648;-69